createdAt,value
2018-12-23T00:00:29.046Z,425.43
2018-12-23T00:02:59.403Z,314.80
2018-12-23T00:05:29.627Z,329.00
2018-12-23T00:07:59.869Z,272.53
2018-12-23T00:10:30.112Z,322.90
2018-12-23T00:13:00.266Z,370.67
2018-12-23T00:15:30.446Z,404.57
2018-12-23T00:18:00.734Z,421.13
2018-12-23T00:20:31.057Z,413.03
2018-12-23T00:23:01.345Z,420.00
2018-12-23T00:25:31.822Z,430.93
2018-12-23T00:28:02.036Z,410.47
2018-12-23T00:30:32.141Z,362.97
2018-12-23T00:33:02.418Z,340.97
2018-12-23T00:35:32.593Z,369.43
2018-12-23T00:38:02.785Z,380.87
2018-12-23T00:40:33.038Z,338.57
2018-12-23T00:43:03.333Z,397.23
2018-12-23T00:45:33.595Z,382.63
2018-12-23T00:48:03.814Z,408.47
2018-12-23T00:50:34.194Z,428.80
2018-12-23T00:53:04.433Z,428.27
2018-12-23T00:55:34.709Z,442.47
2018-12-23T00:58:04.895Z,433.00
2018-12-23T01:00:35.416Z,422.47
2018-12-23T01:03:05.581Z,420.20
2018-12-23T01:05:35.866Z,411.90
2018-12-23T01:08:06.017Z,427.67
2018-12-23T01:10:36.260Z,381.60
2018-12-23T01:13:06.478Z,413.13
2018-12-23T01:15:36.733Z,414.33
2018-12-23T01:18:07.122Z,409.93
2018-12-23T01:20:37.311Z,419.13
2018-12-23T01:23:07.562Z,419.93
2018-12-23T01:25:37.933Z,395.40
2018-12-23T01:28:08.247Z,390.37
2018-12-23T01:30:39.455Z,393.60
2018-12-23T01:33:09.788Z,386.90
2018-12-23T01:35:39.893Z,369.90
2018-12-23T01:38:10.211Z,400.60
2018-12-23T01:40:40.528Z,394.53
2018-12-23T01:43:10.640Z,363.17
2018-12-23T01:45:40.890Z,353.30
2018-12-23T01:48:11.152Z,358.57
2018-12-23T01:50:41.472Z,387.23
2018-12-23T01:53:11.853Z,405.43
2018-12-23T01:55:42.046Z,391.47
2018-12-23T01:58:12.101Z,413.97
2018-12-23T02:00:42.393Z,291.10
2018-12-23T02:03:12.685Z,266.37
2018-12-23T02:05:46.175Z,259.83
2018-12-23T02:08:16.439Z,250.73
2018-12-23T02:10:46.676Z,283.87
2018-12-23T02:13:16.899Z,237.60
2018-12-23T02:15:47.848Z,232.33
2018-12-23T02:18:18.147Z,204.20
2018-12-23T02:20:48.516Z,210.50
2018-12-23T02:23:18.785Z,215.67
2018-12-23T02:25:48.986Z,211.00
2018-12-23T02:28:19.229Z,204.83
2018-12-23T02:30:49.479Z,209.73
2018-12-23T02:33:20.167Z,187.77
2018-12-23T02:35:55.437Z,202.50
2018-12-23T02:38:22.682Z,198.43
2018-12-23T02:40:52.991Z,218.30
2018-12-23T02:43:23.217Z,226.90
2018-12-23T02:45:53.792Z,223.50
2018-12-23T02:48:24.034Z,176.27
2018-12-23T02:50:54.329Z,186.50
2018-12-23T02:53:24.572Z,212.73
2018-12-23T02:55:54.760Z,178.70
2018-12-23T02:58:25.005Z,170.97
2018-12-23T03:00:55.269Z,147.77
2018-12-23T03:03:25.551Z,159.87
2018-12-23T03:06:05.421Z,168.47
2018-12-23T03:08:28.097Z,163.10
2018-12-23T03:10:58.331Z,150.67
2018-12-23T03:13:28.615Z,151.10
2018-12-23T03:15:59.193Z,142.60
2018-12-23T03:18:29.439Z,126.17
2018-12-23T03:20:59.675Z,122.50
2018-12-23T03:23:30.107Z,105.53
2018-12-23T03:26:00.272Z,114.10
2018-12-23T03:28:30.611Z,111.33
2018-12-23T03:31:00.895Z,116.40
2018-12-23T03:33:31.214Z,110.37
2018-12-23T03:36:01.429Z,105.83
2018-12-23T03:38:31.641Z,104.10
2018-12-23T03:41:01.918Z,105.40
2018-12-23T03:43:32.080Z,114.70
2018-12-23T03:46:02.858Z,102.33
2018-12-23T03:48:33.042Z,99.30
2018-12-23T03:51:03.231Z,106.00
2018-12-23T03:53:33.448Z,108.97
2018-12-23T03:56:03.947Z,129.70
2018-12-23T03:58:34.171Z,155.77
2018-12-23T04:01:04.432Z,145.93
2018-12-23T04:03:34.705Z,157.37
2018-12-23T04:06:04.975Z,172.70
2018-12-23T04:08:35.194Z,188.43
2018-12-23T04:11:05.347Z,234.60
2018-12-23T04:13:35.482Z,275.50
2018-12-23T04:16:05.773Z,300.90
2018-12-23T04:18:36.128Z,293.07
2018-12-23T04:21:06.286Z,321.47
2018-12-23T04:23:36.552Z,313.83
2018-12-23T04:26:06.827Z,320.57
2018-12-23T04:28:37.779Z,344.53
2018-12-23T04:31:08.076Z,325.70
2018-12-23T04:33:38.586Z,329.13
2018-12-23T04:36:08.847Z,337.97
2018-12-23T04:38:39.105Z,327.60
2018-12-23T04:41:10.092Z,310.83
2018-12-23T04:43:40.445Z,315.17
2018-12-23T04:46:10.431Z,310.50
2018-12-23T04:48:40.573Z,321.07
2018-12-23T04:51:11.020Z,331.30
2018-12-23T04:53:43.014Z,319.20
2018-12-23T04:56:13.258Z,320.20
2018-12-23T04:58:43.363Z,303.47
2018-12-23T05:01:14.363Z,301.77
2018-12-23T05:03:45.317Z,318.43
2018-12-23T05:06:17.801Z,312.70
2018-12-23T05:08:47.770Z,302.00
2018-12-23T05:11:18.271Z,296.57
2018-12-23T05:13:48.490Z,299.70
2018-12-23T05:16:18.767Z,308.80
2018-12-23T05:18:49.048Z,292.17
2018-12-23T05:21:19.393Z,294.40
2018-12-23T05:23:49.639Z,308.70
2018-12-23T05:26:19.842Z,289.57
2018-12-23T05:28:50.060Z,298.40
2018-12-23T05:31:20.262Z,294.83
2018-12-23T05:33:50.348Z,284.17
2018-12-23T05:36:20.734Z,419.07
2018-12-23T05:38:50.886Z,286.50
2018-12-23T05:41:21.260Z,290.93
2018-12-23T05:43:51.367Z,273.47
2018-12-23T05:46:21.611Z,297.43
2018-12-23T05:48:51.730Z,275.50
2018-12-23T05:51:22.029Z,273.87
2018-12-23T05:53:52.357Z,286.50
2018-12-23T05:56:22.497Z,268.63
2018-12-23T05:58:52.652Z,285.53
2018-12-23T06:01:22.852Z,291.30
2018-12-23T06:03:53.153Z,291.17
2018-12-23T06:06:23.536Z,285.73
2018-12-23T06:08:53.780Z,347.63
2018-12-23T06:11:24.015Z,292.90
2018-12-23T06:13:54.880Z,274.47
2018-12-23T06:16:25.117Z,277.10
2018-12-23T06:18:55.373Z,330.37
2018-12-23T06:21:25.645Z,304.53
2018-12-23T06:23:55.926Z,318.63
2018-12-23T06:26:26.163Z,296.57
2018-12-23T06:28:56.680Z,299.23
2018-12-23T06:31:26.826Z,280.13
2018-12-23T06:33:57.151Z,284.90
2018-12-23T06:36:36.345Z,280.40
2018-12-23T06:39:07.823Z,300.00
2018-12-23T06:41:38.219Z,285.30
2018-12-23T06:44:08.374Z,274.57
2018-12-23T06:46:38.616Z,283.83
2018-12-23T06:49:09.124Z,262.13
2018-12-23T06:51:39.405Z,307.63
2018-12-23T06:54:09.634Z,303.50
2018-12-23T06:56:39.793Z,254.00
2018-12-23T06:59:10.036Z,262.83
2018-12-23T07:01:40.340Z,253.70
2018-12-23T07:04:10.477Z,253.90
2018-12-23T07:06:40.717Z,244.60
2018-12-23T07:09:10.917Z,277.30
2018-12-23T07:11:41.240Z,324.57
2018-12-23T07:14:11.501Z,300.60
2018-12-23T07:16:41.861Z,267.43
2018-12-23T07:19:12.132Z,243.27
2018-12-23T07:21:42.420Z,209.17
2018-12-23T07:24:12.738Z,177.13
2018-12-23T07:26:43.723Z,173.70
2018-12-23T07:29:14.020Z,158.60
2018-12-23T07:31:44.320Z,164.93
2018-12-23T07:34:14.543Z,150.73
2018-12-23T07:36:49.607Z,155.97
2018-12-23T07:39:17.721Z,166.47
2018-12-23T07:41:47.908Z,156.37
2018-12-23T07:44:18.161Z,158.07
2018-12-23T07:46:48.925Z,158.23
2018-12-23T07:49:19.177Z,154.83
2018-12-23T07:51:49.408Z,185.73
2018-12-23T07:54:19.673Z,174.77
2018-12-23T07:56:49.794Z,197.97
2018-12-23T07:59:20.137Z,175.07
2018-12-23T08:01:50.476Z,184.77
2018-12-23T08:04:20.696Z,206.83
2018-12-23T08:06:50.959Z,241.67
2018-12-23T08:09:21.635Z,202.90
2018-12-23T08:11:51.794Z,185.00
2018-12-23T08:14:22.043Z,103.07
2018-12-23T08:16:52.232Z,105.10
2018-12-23T08:19:22.475Z,115.17
2018-12-23T08:21:52.800Z,97.23
2018-12-23T08:24:22.891Z,48.97
2018-12-23T08:26:53.172Z,39.23
2018-12-23T08:29:23.336Z,32.57
2018-12-23T08:31:53.693Z,24.03
2018-12-23T08:34:23.961Z,20.67
2018-12-23T08:36:54.778Z,20.93
2018-12-23T08:39:24.943Z,23.23
2018-12-23T08:41:56.237Z,21.90
2018-12-23T08:44:26.300Z,24.97
2018-12-23T08:46:56.477Z,30.37
2018-12-23T08:49:26.746Z,24.43
2018-12-23T08:51:57.567Z,21.00
2018-12-23T08:54:27.840Z,19.43
2018-12-23T08:56:58.575Z,17.77
2018-12-23T08:59:29.051Z,14.87
2018-12-23T09:01:59.231Z,17.90
2018-12-23T09:04:29.617Z,14.77
2018-12-23T09:06:59.951Z,22.40
2018-12-23T09:09:31.257Z,66.37
2018-12-23T09:12:01.597Z,64.47
2018-12-23T09:14:31.768Z,65.33
2018-12-23T09:17:01.907Z,59.27
2018-12-23T09:19:32.181Z,40.73
2018-12-23T09:22:02.518Z,30.70
2018-12-23T09:24:32.650Z,32.23
2018-12-23T09:27:02.954Z,33.63
2018-12-23T09:29:33.234Z,30.97
2018-12-23T09:32:03.279Z,31.27
2018-12-23T09:36:02.654Z,25.37
2018-12-23T09:38:33.333Z,26.20
2018-12-23T09:41:04.809Z,22.57
2018-12-23T09:43:34.895Z,26.57
2018-12-23T09:46:05.225Z,28.60
2018-12-23T09:48:35.496Z,22.13
2018-12-23T09:51:05.910Z,20.80
2018-12-23T09:53:36.124Z,17.33
2018-12-23T09:56:06.302Z,19.57
2018-12-23T09:58:36.620Z,20.10
2018-12-23T10:01:07.382Z,32.97
2018-12-23T10:03:37.960Z,17.47
2018-12-23T10:06:08.154Z,13.47
2018-12-23T10:08:38.333Z,11.87
2018-12-23T10:11:08.623Z,12.03
2018-12-23T10:13:38.884Z,10.90
2018-12-23T10:16:09.032Z,10.33
2018-12-23T10:18:39.011Z,16.13
2018-12-23T10:21:10.237Z,14.30
2018-12-23T10:23:40.732Z,15.77
2018-12-23T10:26:11.125Z,11.17
2018-12-23T10:28:41.131Z,10.27
2018-12-23T10:31:12.029Z,14.10
2018-12-23T10:33:42.546Z,17.33
2018-12-23T10:36:12.874Z,14.40
2018-12-23T10:38:43.084Z,13.13
2018-12-23T10:41:13.450Z,12.07
2018-12-23T10:43:43.595Z,12.77
2018-12-23T10:46:13.599Z,11.13
2018-12-23T10:48:43.951Z,7.40
2018-12-23T10:51:14.204Z,10.47
2018-12-23T10:53:44.729Z,13.20
2018-12-23T10:56:15.206Z,10.87
2018-12-23T10:58:45.532Z,11.00
2018-12-23T11:01:15.920Z,12.90
2018-12-23T11:03:46.313Z,12.67
2018-12-23T11:06:16.640Z,10.03
2018-12-23T11:08:47.046Z,13.07
2018-12-23T11:11:18.434Z,11.33
2018-12-23T11:13:48.723Z,11.57
2018-12-23T11:16:19.051Z,10.40
2018-12-23T11:18:50.333Z,7.53
2018-12-23T11:21:20.791Z,6.03
2018-12-23T11:23:51.099Z,6.73
2018-12-23T11:26:21.401Z,8.87
2018-12-23T11:28:51.645Z,7.27
2018-12-23T11:31:21.930Z,6.50
2018-12-23T11:33:52.143Z,8.87
2018-12-23T11:36:22.363Z,12.30
2018-12-23T11:38:52.655Z,11.60
2018-12-23T11:41:22.745Z,8.43
2018-12-23T11:43:54.266Z,6.63
2018-12-23T11:46:24.638Z,6.67
2018-12-23T11:48:56.046Z,7.83
2018-12-23T11:51:26.485Z,4.80
2018-12-23T11:53:56.738Z,4.60
2018-12-23T11:56:27.582Z,7.07
2018-12-23T11:58:57.820Z,5.77
2018-12-23T12:01:28.057Z,6.63
2018-12-23T12:03:58.033Z,12.37
2018-12-23T12:06:28.243Z,6.27
2018-12-23T12:09:06.788Z,7.60
2018-12-23T12:11:32.323Z,6.20
2018-12-23T12:14:02.827Z,5.47
2018-12-23T12:16:32.938Z,8.10
2018-12-23T12:19:02.922Z,7.63
2018-12-23T12:21:32.954Z,12.30
2018-12-23T12:24:03.388Z,6.43
2018-12-23T12:26:33.723Z,10.80
2018-12-23T12:29:03.673Z,6.17
2018-12-23T12:31:34.088Z,6.10
2018-12-23T12:34:04.573Z,7.50
2018-12-23T12:36:34.664Z,7.67
2018-12-23T12:39:06.957Z,6.87
2018-12-23T12:41:37.385Z,4.93
2018-12-23T12:44:08.310Z,5.33
2018-12-23T12:46:38.429Z,6.63
2018-12-23T12:49:44.589Z,5.97
2018-12-23T12:52:16.159Z,5.07
2018-12-23T12:54:47.784Z,5.00
2018-12-23T12:57:19.519Z,6.03
2018-12-23T12:59:53.251Z,6.07
2018-12-23T13:02:24.909Z,6.20
2018-12-23T13:04:56.608Z,8.47
2018-12-23T13:07:28.390Z,8.73
2018-12-23T13:10:00.288Z,7.37
2018-12-23T13:12:32.013Z,7.90
2018-12-23T13:15:03.881Z,8.73
2018-12-23T13:17:35.464Z,7.33
2018-12-23T13:20:08.002Z,9.13
2018-12-23T13:22:39.458Z,6.97
2018-12-23T13:25:10.997Z,6.57
2018-12-23T13:27:42.438Z,10.37
2018-12-23T13:30:14.142Z,8.30
2018-12-23T13:32:45.765Z,6.70
2018-12-23T13:35:17.416Z,6.63
2018-12-23T13:37:49.738Z,9.57
2018-12-23T13:41:10.138Z,8.03
2018-12-23T13:44:22.012Z,7.27
2018-12-23T13:47:23.046Z,10.33
2018-12-23T13:50:49.612Z,4.50
2018-12-23T13:53:57.488Z,5.17
2018-12-23T13:56:53.445Z,3.97
2018-12-23T14:00:16.491Z,3.73
2018-12-23T14:03:13.462Z,6.63
2018-12-23T14:06:22.958Z,4.83
2018-12-23T14:09:53.427Z,3.73
2018-12-23T14:12:25.145Z,4.37
2018-12-23T14:14:56.823Z,5.47
2018-12-23T14:17:28.469Z,7.83
2018-12-23T14:20:00.233Z,2.47
2018-12-23T14:22:31.921Z,3.47
2018-12-23T14:25:03.466Z,2.57
2018-12-23T14:27:35.145Z,2.60
2018-12-23T14:30:07.466Z,6.40
2018-12-23T14:32:39.116Z,2.63
2018-12-23T14:35:10.721Z,2.47
2018-12-23T14:37:42.572Z,2.87
2018-12-23T14:40:14.339Z,2.53
2018-12-23T14:42:46.104Z,2.10
2018-12-23T14:45:17.750Z,2.37
2018-12-23T14:47:49.455Z,4.80
2018-12-23T14:50:20.963Z,2.67
2018-12-23T14:52:52.685Z,4.07
2018-12-23T14:55:24.374Z,4.63
2018-12-23T14:57:55.972Z,4.47
2018-12-23T15:00:27.518Z,3.43
2018-12-23T15:02:59.380Z,3.43
2018-12-23T15:05:30.932Z,5.87
2018-12-23T15:08:03.555Z,3.77
2018-12-23T15:10:35.213Z,5.00
2018-12-23T15:13:06.826Z,5.60
2018-12-23T15:15:38.344Z,5.43
2018-12-23T15:18:09.973Z,18.37
2018-12-23T15:20:41.604Z,4.87
2018-12-23T15:23:13.476Z,11.07
2018-12-23T15:25:45.028Z,7.00
2018-12-23T15:28:16.730Z,7.63
2018-12-23T15:30:48.450Z,7.37
2018-12-23T15:33:19.963Z,4.63
2018-12-23T15:35:51.329Z,10.17
2018-12-23T15:38:22.817Z,6.43
2018-12-23T15:40:54.465Z,5.70
2018-12-23T15:43:26.031Z,7.37
2018-12-23T15:45:57.706Z,12.23
2018-12-23T15:48:29.509Z,12.90
2018-12-23T15:51:01.243Z,10.00
2018-12-23T15:53:32.939Z,6.20
2018-12-23T15:56:04.753Z,7.87
2018-12-23T15:58:36.481Z,7.03
2018-12-23T16:01:08.320Z,6.20
2018-12-23T16:03:39.927Z,5.50
2018-12-23T16:06:11.473Z,6.20
2018-12-23T16:08:42.976Z,12.33
2018-12-23T16:11:14.694Z,20.63
2018-12-23T16:13:46.396Z,21.57
2018-12-23T16:16:18.165Z,15.30
2018-12-23T16:18:49.949Z,14.50
2018-12-23T16:21:21.619Z,15.23
2018-12-23T16:23:53.309Z,16.03
2018-12-23T16:26:24.841Z,18.30
2018-12-23T16:28:56.459Z,23.47
2018-12-23T16:31:28.367Z,20.37
2018-12-23T16:34:00.301Z,19.63
2018-12-23T16:36:32.047Z,20.60
2018-12-23T16:39:04.343Z,18.80
2018-12-23T16:41:35.828Z,23.00
2018-12-23T16:44:07.835Z,27.27
2018-12-23T16:46:39.536Z,44.33
2018-12-23T16:49:11.139Z,18.30
2018-12-23T16:51:44.609Z,19.07
2018-12-23T16:54:16.301Z,26.53
2018-12-23T16:56:47.863Z,15.53
2018-12-23T16:59:19.858Z,12.93
2018-12-23T17:01:51.625Z,13.17
2018-12-23T17:04:23.344Z,12.60
2018-12-23T17:06:56.174Z,7.93
2018-12-23T17:09:27.867Z,8.03
2018-12-23T17:11:59.444Z,6.73
2018-12-23T17:14:31.229Z,5.07
2018-12-23T17:17:02.762Z,7.97
2018-12-23T17:19:34.462Z,6.40
2018-12-23T17:22:06.229Z,7.80
2018-12-23T17:24:37.916Z,6.50
2018-12-23T17:27:09.355Z,7.20
2018-12-23T17:29:41.153Z,8.27
2018-12-23T17:32:12.782Z,5.17
2018-12-23T17:34:44.247Z,6.20
2018-12-23T17:37:15.733Z,7.20
2018-12-23T17:39:47.165Z,8.43
2018-12-23T17:42:18.574Z,8.70
2018-12-23T17:44:50.042Z,7.00
2018-12-23T17:47:21.493Z,7.67
2018-12-23T17:49:53.086Z,6.43
2018-12-23T17:52:24.549Z,4.10
2018-12-23T17:54:56.139Z,6.53
2018-12-23T17:57:27.657Z,9.47
2018-12-23T17:59:59.118Z,6.17
2018-12-23T18:02:30.577Z,8.90
2018-12-23T18:05:02.021Z,8.80
2018-12-23T18:07:33.517Z,6.00
2018-12-23T18:10:05.018Z,4.43
2018-12-23T18:12:36.565Z,7.33
2018-12-23T18:15:08.151Z,6.70
2018-12-23T18:17:39.607Z,5.97
2018-12-23T18:20:11.028Z,7.10
2018-12-23T18:22:43.544Z,7.20
2018-12-23T18:25:15.178Z,6.70
2018-12-23T18:27:46.711Z,8.53
2018-12-23T18:30:18.461Z,5.50
2018-12-23T18:32:50.025Z,4.50
2018-12-23T18:35:23.535Z,7.67
2018-12-23T18:37:55.541Z,6.77
2018-12-23T18:40:33.291Z,5.20
2018-12-23T18:43:00.703Z,14.23
2018-12-23T18:45:32.359Z,28.10
2018-12-23T18:48:04.166Z,21.47
2018-12-23T18:50:36.272Z,24.70
2018-12-23T18:53:07.802Z,25.37
2018-12-23T18:55:39.815Z,30.50
2018-12-23T18:58:11.781Z,40.80
2018-12-23T19:00:46.216Z,33.83
2018-12-23T19:03:17.789Z,31.63
2018-12-23T19:05:49.544Z,30.93
2018-12-23T19:08:27.754Z,33.13
2018-12-23T19:11:28.013Z,35.93
2018-12-23T19:14:37.247Z,40.33
2018-12-23T19:17:41.773Z,46.47
2018-12-23T19:20:50.728Z,41.80
2018-12-23T19:24:10.986Z,40.57
2018-12-23T19:27:31.656Z,37.03
2018-12-23T19:30:48.749Z,34.10
2018-12-23T19:33:51.415Z,37.13
2018-12-23T19:37:03.652Z,32.90
2018-12-23T19:40:21.917Z,35.03
2018-12-23T19:43:34.096Z,40.57
2018-12-23T19:46:24.996Z,36.57
2018-12-23T19:49:24.938Z,34.57
2018-12-23T19:52:39.112Z,34.03
2018-12-23T19:55:50.130Z,37.03
2018-12-23T19:58:54.667Z,33.97
2018-12-23T20:02:24.948Z,62.63
2018-12-23T20:05:51.336Z,60.00
2018-12-23T20:09:18.128Z,65.07
2018-12-23T20:12:24.950Z,67.32
2018-12-23T20:15:32.202Z,92.47
2018-12-23T20:18:32.045Z,87.77
2018-12-23T20:21:52.961Z,66.97
2018-12-23T20:24:53.944Z,223.27
2018-12-23T20:28:08.046Z,93.70
2018-12-23T20:31:20.641Z,88.37
2018-12-23T20:34:51.278Z,80.03
2018-12-23T20:38:06.550Z,96.63
2018-12-23T20:41:21.760Z,108.47
2018-12-23T20:44:51.978Z,117.90
2018-12-23T20:48:10.101Z,95.53
2018-12-23T20:51:19.348Z,98.30
2018-12-23T20:54:39.901Z,93.67
2018-12-23T20:58:04.305Z,84.97
2018-12-23T21:01:18.668Z,88.97
2018-12-23T21:04:45.398Z,76.07
2018-12-23T21:08:00.388Z,81.43
2018-12-23T21:11:36.737Z,81.23
2018-12-23T21:14:39.174Z,71.27
2018-12-23T21:17:35.214Z,67.13
2018-12-23T21:20:44.419Z,67.07
2018-12-23T21:23:58.288Z,56.10
2018-12-23T21:27:18.769Z,66.37
2018-12-23T21:30:46.178Z,79.23
2018-12-23T21:34:00.328Z,89.57
2018-12-23T21:37:12.417Z,91.50
2018-12-23T21:40:32.628Z,69.80
2018-12-23T21:43:49.659Z,64.93
2018-12-23T21:47:11.141Z,54.67
2018-12-23T21:50:28.160Z,48.47
2018-12-23T21:53:48.147Z,50.40
2018-12-23T21:57:06.118Z,55.93
2018-12-23T22:00:03.854Z,51.80
2018-12-23T22:03:46.480Z,52.20
2018-12-23T22:06:53.199Z,66.83
2018-12-23T22:10:01.220Z,79.60
2018-12-23T22:13:31.526Z,70.07
2018-12-23T22:16:03.129Z,78.87
2018-12-23T22:18:34.547Z,74.63
2018-12-23T22:21:06.018Z,70.60
2018-12-23T22:23:37.666Z,73.37
2018-12-23T22:26:09.367Z,84.10
2018-12-23T22:28:41.148Z,89.63
2018-12-23T22:31:12.938Z,91.43
2018-12-23T22:33:44.688Z,96.67
2018-12-23T22:36:16.594Z,70.03
2018-12-23T22:38:48.316Z,81.00
2018-12-23T22:41:23.604Z,75.80
2018-12-23T22:43:54.998Z,84.20
2018-12-23T22:46:26.456Z,86.17
2018-12-23T22:48:57.968Z,104.27
2018-12-23T22:51:29.617Z,107.73
2018-12-23T22:54:01.141Z,103.83
2018-12-23T22:56:32.729Z,106.03
2018-12-23T22:59:05.114Z,116.10
2018-12-23T23:01:40.184Z,124.43
2018-12-23T23:04:11.817Z,104.07
2018-12-23T23:06:43.593Z,114.63
2018-12-23T23:09:15.007Z,114.80
2018-12-23T23:11:50.031Z,98.73
2018-12-23T23:14:19.696Z,94.90
2018-12-23T23:16:51.385Z,106.33
2018-12-23T23:19:23.780Z,61.43
2018-12-23T23:21:55.236Z,70.27
2018-12-23T23:24:26.719Z,64.97
2018-12-23T23:26:58.352Z,76.80
2018-12-23T23:29:30.067Z,61.23
2018-12-23T23:32:01.471Z,54.60
2018-12-23T23:34:32.940Z,55.67
2018-12-23T23:37:04.366Z,56.33
2018-12-23T23:39:36.139Z,46.10
2018-12-23T23:42:07.806Z,48.80
2018-12-23T23:44:39.514Z,53.80
2018-12-23T23:47:11.138Z,50.20
2018-12-23T23:49:42.811Z,51.80
2018-12-23T23:52:14.281Z,50.17
2018-12-23T23:54:45.937Z,50.73
2018-12-23T23:57:17.581Z,50.73
2018-12-23T23:59:49.189Z,53.33
